| time (UTC) | temp F | wind direction | speed MPH | gust MPH | rain 1hr in | rain 24hr in | rain mn in | humidity % | barometer mb |
| 20260508030025 | 46 | 15 | 0.0 | 0.0 | 0.00 | 0.24 | 0.00 | 96 | 1016.8 |
| 20260508024519 | 46 | 15 | 0.0 | 0.0 | 0.00 | 0.24 | 0.00 | 96 | 1016.9 |
| 20260508023019 | 46 | 15 | 0.0 | 0.0 | 0.00 | 0.24 | 0.00 | 96 | 1016.8 |
| 20260508021518 | 46 | 15 | 0.0 | 0.0 | 0.00 | 0.24 | 0.00 | 96 | 1016.9 |
| 20260508020027 | 46 | 15 | 0.0 | 0.0 | 0.00 | 0.24 | 0.00 | 96 | 1016.9 |
| 20260508014518 | 46 | 15 | 0.0 | 0.0 | 0.00 | 0.24 | 0.00 | 96 | 1016.8 |
| 20260508013017 | 46 | 15 | 0.0 | 0.0 | 0.00 | 0.24 | 0.00 | 96 | 1016.8 |
| 20260508011519 | 46 | 15 | 0.0 | 0.0 | 0.00 | 0.24 | 0.00 | 96 | 1016.8 |
| 20260508010017 | 46 | 15 | 0.0 | 0.0 | 0.00 | 0.24 | 0.00 | 96 | 1016.7 |
| 20260508004514 | 46 | 15 | 0.0 | 0.0 | 0.00 | 0.24 | 0.00 | 96 | 1016.7 |
| 20260508003014 | 46 | 15 | 0.0 | 0.0 | 0.00 | 0.24 | 0.00 | 96 | 1016.6 |
| 20260508001533 | 46 | 15 | 0.0 | 0.0 | 0.00 | 0.24 | 0.00 | 96 | 1016.7 |
| 20260508000012 | 46 | 15 | 0.0 | 0.0 | 0.00 | 0.24 | 0.00 | 96 | 1016.8 |
| 20260507234515 | 46 | 15 | 0.0 | 0.0 | 0.00 | 0.24 | 0.00 | 96 | 1016.9 |
| 20260507233015 | 46 | 15 | 0.0 | 0.0 | 0.00 | 0.24 | 0.00 | 96 | 1016.8 |
| 20260507231511 | 46 | 15 | 0.0 | 0.0 | 0.00 | 0.24 | 0.00 | 96 | 1016.8 |
| 20260507230010 | 46 | 15 | 0.0 | 0.0 | 0.00 | 0.24 | 0.00 | 96 | 1016.9 |
| 20260507224509 | 46 | 15 | 0.0 | 0.0 | 0.00 | 0.24 | 0.00 | 95 | 1016.8 |
| 20260507223008 | 46 | 15 | 0.0 | 0.0 | 0.00 | 0.24 | 0.00 | 95 | 1016.7 |
| 20260507221507 | 46 | 15 | 0.0 | 0.0 | 0.00 | 0.24 | 0.00 | 95 | 1016.7 |
| 20260507220009 | 46 | 15 | 0.0 | 0.0 | 0.00 | 0.24 | 0.00 | 95 | 1016.6 |
| 20260507214504 | 46 | 15 | 0.0 | 0.0 | 0.00 | 0.24 | 0.24 | 95 | 1016.5 |
| 20260507213003 | 46 | 15 | 0.0 | 0.0 | 0.00 | 0.24 | 0.24 | 95 | 1016.4 |
| 20260507211503 | 46 | 15 | 0.0 | 0.0 | 0.00 | 0.24 | 0.24 | 95 | 1016.4 |
| 20260507210003 | 46 | 15 | 0.0 | 0.0 | 0.00 | 0.24 | 0.24 | 95 | 1016.4 |
| 20260507204500 | 46 | 15 | 0.0 | 0.0 | 0.00 | 0.24 | 0.24 | 95 | 1016.3 |
| 20260507203101 | 46 | 15 | 0.0 | 0.0 | 0.00 | 0.24 | 0.24 | 95 | 1016.2 |
| 20260507201659 | 46 | 15 | 0.0 | 0.0 | 0.00 | 0.24 | 0.24 | 95 | 1016.1 |
| 20260507200109 | 46 | 15 | 0.0 | 1.0 | 0.01 | 0.24 | 0.24 | 95 | 1015.9 |
| 20260507194555 | 46 | 15 | 0.0 | 0.0 | 0.02 | 0.24 | 0.24 | 95 | 1015.7 |
| 20260507193055 | 46 | 15 | 0.0 | 1.0 | 0.04 | 0.24 | 0.24 | 94 | 1015.7 |
| 20260507191557 | 46 | 15 | 0.0 | 1.0 | 0.04 | 0.24 | 0.24 | 94 | 1015.5 |
| 20260507190054 | 46 | 15 | 0.0 | 2.0 | 0.05 | 0.23 | 0.23 | 94 | 1015.3 |
| 20260507184552 | 46 | 15 | 1.0 | 3.0 | 0.04 | 0.22 | 0.22 | 94 | 1015.2 |
| 20260507183047 | 47 | 15 | 1.0 | 3.0 | 0.04 | 0.20 | 0.20 | 94 | 1015.0 |
| 20260507181519 | 46 | 15 | 1.0 | 3.0 | 0.04 | 0.20 | 0.20 | 94 | 1014.8 |
| 20260507180019 | 46 | 15 | 0.0 | 3.0 | 0.04 | 0.18 | 0.18 | 93 | 1014.7 |
| 20260507174527 | 46 | 15 | 1.0 | 2.0 | 0.06 | 0.18 | 0.18 | 93 | 1014.7 |
| 20260507173019 | 46 | 15 | 1.0 | 3.0 | 0.07 | 0.16 | 0.16 | 93 | 1014.7 |
| 20260507171518 | 46 | 15 | 2.0 | 3.0 | 0.08 | 0.16 | 0.16 | 93 | 1014.6 |
| 20260507170017 | 47 | 15 | 1.0 | 3.0 | 0.08 | 0.14 | 0.14 | 93 | 1014.5 |
| 20260507164512 | 47 | 15 | 2.0 | 3.0 | 0.06 | 0.12 | 0.12 | 93 | 1014.4 |
| 20260507163011 | 47 | 15 | 2.0 | 3.0 | 0.04 | 0.09 | 0.09 | 93 | 1014.3 |
| 20260507161512 | 47 | 15 | 1.0 | 4.0 | 0.04 | 0.08 | 0.08 | 93 | 1014.3 |
| 20260507160014 | 47 | 13 | 1.0 | 3.0 | 0.02 | 0.06 | 0.06 | 92 | 1014.3 |
| 20260507154508 | 47 | 13 | 1.0 | 4.0 | 0.02 | 0.06 | 0.06 | 92 | 1014.3 |
| 20260507153009 | 47 | 43 | 1.0 | 4.0 | 0.02 | 0.05 | 0.05 | 92 | 1014.1 |
| 20260507151506 | 47 | 42 | 1.0 | 4.0 | 0.02 | 0.04 | 0.04 | 92 | 1014.0 |
| 20260507150007 | 46 | 43 | 0.0 | 3.0 | 0.02 | 0.04 | 0.04 | 92 | 1014.0 |
| 20260507144509 | 46 | 43 | 1.0 | 3.0 | 0.02 | 0.04 | 0.04 | 92 | 1013.9 |
| 20260507143003 | 46 | 30 | 2.0 | 4.0 | 0.01 | 0.03 | 0.03 | 92 | 1013.8 |
| 20260507141502 | 46 | 360 | 2.0 | 5.0 | 0.00 | 0.02 | 0.02 | 92 | 1013.7 |
| 20260507140000 | 46 | 360 | 2.0 | 4.0 | 0.00 | 0.02 | 0.02 | 92 | 1013.7 |
| 20260507134600 | 46 | 28 | 2.0 | 5.0 | 0.01 | 0.02 | 0.02 | 92 | 1013.6 |
| 20260507133106 | 46 | 61 | 2.0 | 8.0 | 0.01 | 0.02 | 0.02 | 91 | 1013.5 |
| 20260507131603 | 46 | 5 | 2.0 | 8.0 | 0.01 | 0.02 | 0.02 | 91 | 1013.5 |
| 20260507130109 | 46 | 46 | 1.0 | 5.0 | 0.01 | 0.02 | 0.02 | 91 | 1013.4 |
| 20260507124556 | 46 | 45 | 3.0 | 6.0 | 0.00 | 0.01 | 0.01 | 90 | 1013.3 |
| 20260507123053 | 47 | 336 | 5.0 | 9.0 | 0.00 | 0.01 | 0.01 | 88 | 1013.0 |
| 20260507121603 | 47 | 355 | 3.0 | 9.0 | 0.00 | 0.01 | 0.01 | 87 | 1012.8 |
| 20260507120049 | 47 | 50 | 5.0 | 11.0 | 0.00 | 0.01 | 0.01 | 87 | 1012.7 |
| 20260507114601 | 47 | 51 | 7.0 | 14.0 | 0.00 | 0.01 | 0.01 | 85 | 1012.5 |
| 20260507113048 | 47 | 53 | 4.0 | 11.0 | 0.00 | 0.01 | 0.01 | 85 | 1012.4 |
| 20260507111545 | 47 | 32 | 4.0 | 10.0 | 0.00 | 0.01 | 0.01 | 86 | 1012.3 |
| 20260507110044 | 47 | 56 | 4.0 | 10.0 | 0.00 | 0.01 | 0.01 | 86 | 1012.3 |
| 20260507104543 | 47 | 40 | 3.0 | 8.0 | 0.00 | 0.01 | 0.01 | 87 | 1012.2 |
| 20260507103044 | 46 | 51 | 4.0 | 9.0 | 0.00 | 0.01 | 0.01 | 88 | 1012.1 |
| 20260507101541 | 46 | 38 | 4.0 | 7.0 | 0.00 | 0.01 | 0.01 | 88 | 1012.1 |
| 20260507100041 | 46 | 45 | 3.0 | 8.0 | 0.00 | 0.01 | 0.01 | 89 | 1011.9 |
| 20260507094539 | 46 | 59 | 5.0 | 9.0 | 0.00 | 0.01 | 0.01 | 88 | 1011.8 |
| 20260507093037 | 46 | 86 | 4.0 | 10.0 | 0.00 | 0.01 | 0.01 | 89 | 1011.7 |
| 20260507091534 | 46 | 57 | 4.0 | 10.0 | 0.01 | 0.01 | 0.01 | 89 | 1011.4 |
| 20260507090037 | 46 | 42 | 6.0 | 10.0 | 0.01 | 0.01 | 0.01 | 90 | 1011.3 |
| 20260507084529 | 46 | 64 | 6.0 | 12.0 | 0.01 | 0.01 | 0.01 | 90 | 1011.0 |
| 20260507083028 | 46 | 28 | 3.0 | 7.0 | 0.01 | 0.01 | 0.01 | 90 | 1010.9 |
| 20260507081539 | 46 | 57 | 4.0 | 9.0 | 0.00 | 0.00 | 0.00 | 90 | 1010.6 |
| 20260507080024 | 45 | 78 | 6.0 | 12.0 | 0.00 | 0.00 | 0.00 | 91 | 1010.5 |
| 20260507074544 | 45 | 26 | 7.0 | 12.0 | 0.00 | 0.01 | 0.00 | 91 | 1010.3 |
| 20260507073021 | 45 | 51 | 4.0 | 10.0 | 0.00 | 0.01 | 0.00 | 91 | 1010.2 |
| 20260507071519 | 45 | 81 | 3.0 | 9.0 | 0.00 | 0.01 | 0.00 | 90 | 1010.1 |
| 20260507070021 | 45 | 44 | 3.0 | 9.0 | 0.00 | 0.01 | 0.00 | 90 | 1010.0 |
| 20260507064517 | 45 | 61 | 6.0 | 11.0 | 0.00 | 0.02 | 0.00 | 90 | 1009.9 |
| 20260507063022 | 45 | 25 | 3.0 | 9.0 | 0.00 | 0.02 | 0.00 | 90 | 1009.8 |
| 20260507061514 | 45 | 360 | 4.0 | 8.0 | 0.00 | 0.02 | 0.00 | 90 | 1009.6 |
| 20260507060010 | 45 | 49 | 2.0 | 9.0 | 0.00 | 0.02 | 0.00 | 90 | 1009.3 |
| 20260507054512 | 45 | 54 | 4.0 | 7.0 | 0.00 | 0.06 | 0.00 | 90 | 1009.2 |
| 20260507053008 | 45 | 44 | 4.0 | 10.0 | 0.00 | 0.06 | 0.00 | 90 | 1009.1 |
| 20260507051508 | 44 | 72 | 5.0 | 10.0 | 0.00 | 0.06 | 0.00 | 90 | 1009.0 |
| 20260507050017 | 44 | 76 | 7.0 | 11.0 | 0.00 | 0.06 | 0.00 | 90 | 1009.0 |
| 20260507044502 | 44 | 59 | 5.0 | 9.0 | 0.00 | 0.19 | 0.00 | 90 | 1008.8 |
| 20260507043002 | 44 | 62 | 4.0 | 9.0 | 0.00 | 0.19 | 0.00 | 90 | 1008.6 |
| 20260507041604 | 44 | 23 | 5.0 | 12.0 | 0.00 | 0.19 | 0.00 | 90 | 1008.6 |
| 20260507040056 | 44 | 78 | 3.0 | 9.0 | 0.00 | 0.19 | 0.00 | 90 | 1008.5 |
| 20260507034600 | 44 | 49 | 3.0 | 11.0 | 0.00 | 0.26 | 0.00 | 90 | 1008.4 |
| 20260507033100 | 44 | 55 | 4.0 | 9.0 | 0.00 | 0.26 | 0.00 | 90 | 1008.4 |
| 20260507031605 | 45 | 42 | 4.0 | 10.0 | 0.00 | 0.26 | 0.00 | 90 | 1008.2 |